Time;durP1;ratioP1;P1;durP2;ratioP2;P2;SDS_P1;SDS_P2;PMS_P1;PMS_P2;Temp;Humidity;BMP_temperature;BMP_pressure;BME280_temperature;BME280_humidity;BME280_pressure;Samples;Min_cycle;Max_cycle;Signal;HPM_P1;HPM_P2
2022/09/11 00:00:59;;;;;;;25.10;14.50;;;17.20;99.90;;;;;;5065669;28;25102;-74
2022/09/11 00:03:26;;;;;;;22.90;12.45;;;17.30;99.90;;;;;;5069116;28;25133;-78
2022/09/11 00:05:52;;;;;;;22.55;12.93;;;17.30;99.90;;;;;;5070109;28;25062;-78
2022/09/11 00:08:20;;;;;;;28.67;14.02;;;17.20;99.90;;;;;;5056115;28;25073;-73
2022/09/11 00:10:47;;;;;;;18.80;12.55;;;17.30;99.90;;;;;;5066207;28;25048;-77
2022/09/11 00:13:18;;;;;;;22.95;11.85;;;17.30;99.90;;;;;;5064736;28;25057;-76
2022/09/11 00:15:45;;;;;;;18.58;12.75;;;17.40;99.90;;;;;;5067567;28;25150;-75
2022/09/11 00:18:13;;;;;;;20.45;12.27;;;17.40;99.90;;;;;;5061154;28;25078;-74
2022/09/11 00:20:45;;;;;;;23.52;13.00;;;17.30;99.90;;;;;;5061945;28;25060;-74
2022/09/11 00:23:12;;;;;;;22.20;13.27;;;17.30;99.90;;;;;;5064010;28;25047;-76
2022/09/11 00:25:39;;;;;;;24.90;12.80;;;17.40;99.90;;;;;;5056735;28;25084;-74
2022/09/11 00:28:05;;;;;;;27.45;14.18;;;17.30;99.90;;;;;;5059750;28;25061;-74
2022/09/11 00:30:31;;;;;;;33.08;13.82;;;17.30;99.90;;;;;;5062636;28;25139;-74
2022/09/11 00:32:56;;;;;;;22.95;12.82;;;17.30;99.90;;;;;;5057953;28;25068;-74
2022/09/11 00:35:23;;;;;;;23.17;12.32;;;17.40;99.90;;;;;;5067698;28;25078;-77
2022/09/11 00:37:49;;;;;;;25.05;13.82;;;17.50;99.90;;;;;;5064868;28;25049;-75
2022/09/11 00:40:16;;;;;;;25.00;13.43;;;17.50;99.90;;;;;;5062057;28;25106;-76
2022/09/11 00:42:42;;;;;;;27.55;13.57;;;17.50;99.90;;;;;;5052192;28;25074;-74
2022/09/11 00:45:23;;;;;;;22.48;12.82;;;17.40;99.90;;;;;;5058982;28;25074;-74
2022/09/11 00:47:50;;;;;;;22.98;12.98;;;17.30;99.90;;;;;;5054859;28;25074;-74
2022/09/11 00:50:19;;;;;;;21.73;13.18;;;17.40;99.90;;;;;;5062960;28;25056;-75
2022/09/11 00:52:56;;;;;;;22.55;13.18;;;17.50;99.90;;;;;;5058181;28;25050;-75
2022/09/11 00:55:26;;;;;;;23.80;13.43;;;17.20;99.90;;;;;;5058099;28;25073;-74
2022/09/11 00:57:58;;;;;;;27.75;13.63;;;17.20;99.90;;;;;;5062918;28;25166;-75
2022/09/11 01:00:23;;;;;;;26.05;14.80;;;17.20;99.90;;;;;;5058728;28;25083;-76
2022/09/11 01:02:50;;;;;;;28.73;14.57;;;17.20;99.90;;;;;;5063169;28;25075;-75
2022/09/11 01:05:17;;;;;;;25.10;14.18;;;17.20;99.90;;;;;;5060817;28;25054;-75
2022/09/11 01:07:46;;;;;;;25.33;13.70;;;17.30;99.90;;;;;;5056547;28;25059;-74
2022/09/11 01:10:12;;;;;;;22.75;12.35;;;17.40;99.90;;;;;;5059346;28;25061;-74
2022/09/11 01:12:59;;;;;;;21.45;11.95;;;17.40;99.90;;;;;;5054539;28;25073;-74
2022/09/11 01:15:41;;;;;;;25.95;13.40;;;17.20;99.90;;;;;;5069636;28;25069;-75
2022/09/11 01:18:30;;;;;;;23.30;14.10;;;17.30;99.90;;;;;;5056050;28;25146;-76
2022/09/11 01:21:21;;;;;;;23.42;13.38;;;17.30;99.90;;;;;;5060373;28;25069;-75
2022/09/11 01:23:56;;;;;;;25.63;12.77;;;17.10;99.90;;;;;;5064864;28;25073;-76
2022/09/11 01:26:51;;;;;;;24.98;13.27;;;17.10;99.90;;;;;;5060030;28;25064;-74
2022/09/11 01:30:08;;;;;;;30.85;15.80;;;17.10;99.90;;;;;;5054805;28;25060;-74
2022/09/11 01:32:43;;;;;;;22.75;13.65;;;17.10;99.90;;;;;;5053842;28;25071;-74
2022/09/11 01:35:15;;;;;;;27.02;13.73;;;17.10;99.90;;;;;;5054828;28;25065;-74
2022/09/11 01:38:26;;;;;;;27.67;14.45;;;16.90;99.90;;;;;;5048356;28;25088;-76
2022/09/11 01:41:14;;;;;;;28.63;14.75;;;16.80;99.90;;;;;;5064252;28;25063;-75
2022/09/11 01:43:50;;;;;;;25.60;14.18;;;16.90;99.90;;;;;;5063502;28;25080;-75
2022/09/11 01:46:21;;;;;;;23.35;13.88;;;17.10;99.90;;;;;;5060892;28;25099;-77
2022/09/11 01:48:52;;;;;;;28.63;15.48;;;17.20;99.90;;;;;;5054017;28;25107;-75
2022/09/11 01:51:25;;;;;;;27.95;15.25;;;17.40;99.90;;;;;;5075689;28;25065;-76
2022/09/11 01:53:52;;;;;;;29.25;16.50;;;17.40;99.90;;;;;;5062268;28;25067;-74
2022/09/11 01:56:24;;;;;;;32.33;17.30;;;17.40;99.90;;;;;;5056968;28;25084;-74
2022/09/11 01:58:56;;;;;;;31.33;17.92;;;17.40;99.90;;;;;;5054201;28;25063;-75
2022/09/11 02:01:27;;;;;;;29.35;15.57;;;17.30;99.90;;;;;;5053327;28;25056;-75
2022/09/11 02:04:09;;;;;;;37.87;16.77;;;17.10;99.90;;;;;;5052582;28;25056;-76
2022/09/11 02:06:58;;;;;;;33.30;14.73;;;16.90;99.90;;;;;;5066622;28;25061;-75
2022/09/11 02:09:30;;;;;;;27.15;14.85;;;16.80;99.90;;;;;;5058533;28;25071;-76
2022/09/11 02:11:58;;;;;;;25.08;13.95;;;16.70;99.90;;;;;;5063738;28;25071;-75
2022/09/11 02:14:29;;;;;;;29.00;14.68;;;16.70;99.90;;;;;;5050151;28;25059;-75
2022/09/11 02:17:02;;;;;;;29.05;15.00;;;16.70;99.90;;;;;;5062805;28;25112;-74
2022/09/11 02:19:30;;;;;;;24.17;14.30;;;16.90;99.90;;;;;;5046011;28;25071;-74
2022/09/11 02:21:58;;;;;;;28.23;15.00;;;16.80;99.90;;;;;;5064049;28;25056;-77
2022/09/11 02:24:26;;;;;;;26.70;14.90;;;16.80;99.90;;;;;;5053850;28;25145;-76
2022/09/11 02:26:58;;;;;;;29.00;15.65;;;16.90;99.90;;;;;;5047560;28;25073;-77
2022/09/11 02:29:25;;;;;;;30.05;15.63;;;16.90;99.90;;;;;;5054756;28;25054;-75
2022/09/11 02:31:51;;;;;;;32.25;16.13;;;17.00;99.90;;;;;;5057722;28;25109;-76
2022/09/11 02:34:22;;;;;;;28.27;15.70;;;17.10;99.90;;;;;;5054515;28;25075;-76
2022/09/11 02:37:26;;;;;;;28.48;16.20;;;16.90;99.90;;;;;;5057522;28;25065;-74
2022/09/11 02:40:30;;;;;;;35.03;15.95;;;16.80;99.90;;;;;;5053983;28;25093;-74
2022/09/11 02:43:38;;;;;;;31.08;16.05;;;16.80;99.90;;;;;;5054033;28;25055;-72
2022/09/11 02:46:28;;;;;;;25.38;13.80;;;16.80;99.90;;;;;;5071071;28;25150;-74
2022/09/11 02:48:59;;;;;;;29.42;15.00;;;16.80;99.90;;;;;;5062162;28;25159;-76
2022/09/11 02:51:36;;;;;;;32.28;16.50;;;16.90;99.90;;;;;;5053944;28;25062;-75
2022/09/11 02:54:19;;;;;;;32.70;16.83;;;16.80;99.90;;;;;;5068752;28;25067;-75
2022/09/11 02:57:02;;;;;;;25.88;15.15;;;16.80;99.90;;;;;;5066837;28;25086;-76
2022/09/11 02:59:33;;;;;;;32.63;15.75;;;16.80;99.90;;;;;;5076495;28;25076;-75
2022/09/11 03:02:00;;;;;;;29.60;15.37;;;16.70;99.90;;;;;;5056706;28;25062;-75
2022/09/11 03:04:28;;;;;;;30.80;16.02;;;16.60;99.90;;;;;;5067856;28;25093;-75
2022/09/11 03:06:55;;;;;;;30.67;16.92;;;16.50;99.90;;;;;;5073979;28;25179;-73
2022/09/11 03:09:21;;;;;;;32.80;15.90;;;16.50;99.90;;;;;;5067973;28;25066;-75
2022/09/11 03:11:46;;;;;;;28.75;15.02;;;16.60;99.90;;;;;;5063972;28;25057;-74
2022/09/11 03:14:13;;;;;;;31.70;16.63;;;16.60;99.90;;;;;;5062024;28;25079;-74
2022/09/11 03:16:39;;;;;;;29.30;15.90;;;16.50;99.90;;;;;;5056362;28;25069;-75
2022/09/11 03:19:06;;;;;;;29.85;14.70;;;16.60;99.90;;;;;;5059683;28;25074;-74
2022/09/11 03:21:32;;;;;;;29.90;15.93;;;16.70;99.90;;;;;;5070003;28;25058;-75
2022/09/11 03:23:57;;;;;;;24.42;14.18;;;16.70;99.90;;;;;;5059608;28;25127;-76
2022/09/11 03:26:24;;;;;;;30.83;15.27;;;16.60;99.90;;;;;;5060658;28;25079;-76
2022/09/11 03:28:51;;;;;;;27.48;15.20;;;16.60;99.90;;;;;;5062571;28;25056;-74
2022/09/11 03:31:16;;;;;;;27.85;15.35;;;16.60;99.90;;;;;;5064333;28;25068;-77
2022/09/11 03:33:42;;;;;;;29.08;15.13;;;16.60;99.90;;;;;;5065641;28;25144;-75
2022/09/11 03:36:08;;;;;;;31.23;15.75;;;16.50;99.90;;;;;;5065441;28;25084;-75
2022/09/11 03:38:34;;;;;;;29.55;15.60;;;16.50;99.90;;;;;;5073040;28;25084;-75
2022/09/11 03:41:01;;;;;;;30.52;15.40;;;16.40;99.90;;;;;;5062662;28;25051;-74
2022/09/11 03:43:27;;;;;;;28.83;15.65;;;16.30;99.90;;;;;;5059193;28;25099;-74
2022/09/11 03:45:52;;;;;;;30.98;14.82;;;16.20;99.90;;;;;;5055827;28;25168;-75
2022/09/11 03:48:18;;;;;;;27.95;14.93;;;16.30;99.90;;;;;;5059880;28;25069;-75
2022/09/11 03:50:44;;;;;;;27.30;15.55;;;16.30;99.90;;;;;;5059492;28;25117;-75
2022/09/11 03:53:10;;;;;;;29.92;16.15;;;16.30;99.90;;;;;;5057622;28;25072;-75
2022/09/11 03:55:36;;;;;;;29.92;16.23;;;16.20;99.90;;;;;;5060260;28;25075;-76
2022/09/11 03:58:02;;;;;;;30.08;15.75;;;16.30;99.90;;;;;;5063263;28;25106;-75
2022/09/11 04:00:28;;;;;;;29.50;15.52;;;16.40;99.90;;;;;;5064014;28;25359;-75
2022/09/11 04:02:57;;;;;;;31.38;15.13;;;16.40;99.90;;;;;;5063190;28;25084;-75
2022/09/11 04:05:25;;;;;;;31.42;16.52;;;16.30;99.90;;;;;;5062677;28;25023;-75
2022/09/11 04:07:52;;;;;;;33.97;15.45;;;16.20;99.90;;;;;;5069700;28;25063;-75
2022/09/11 04:10:18;;;;;;;32.10;16.23;;;16.20;99.90;;;;;;5065907;28;25064;-74
2022/09/11 04:12:45;;;;;;;32.03;16.30;;;16.20;99.90;;;;;;5060947;28;25074;-74
2022/09/11 04:15:10;;;;;;;28.90;15.85;;;16.20;99.90;;;;;;5066761;28;25109;-75
2022/09/11 04:17:36;;;;;;;28.80;15.65;;;16.30;99.90;;;;;;5070175;28;25081;-75
2022/09/11 04:20:03;;;;;;;33.75;15.63;;;16.20;99.90;;;;;;5066587;28;25076;-76
2022/09/11 04:22:29;;;;;;;31.10;16.60;;;16.20;99.90;;;;;;5070790;28;25101;-75
2022/09/11 04:24:54;;;;;;;33.60;15.88;;;16.10;99.90;;;;;;5063618;28;25068;-76
2022/09/11 04:27:22;;;;;;;26.45;15.23;;;16.10;99.90;;;;;;5075852;28;25052;-75
2022/09/11 04:29:47;;;;;;;32.28;16.48;;;16.10;99.90;;;;;;5065167;28;25131;-76
2022/09/11 04:32:13;;;;;;;27.08;15.18;;;16.00;99.90;;;;;;5058941;28;25063;-75
2022/09/11 04:34:39;;;;;;;24.90;14.10;;;16.00;99.90;;;;;;5068848;28;25154;-74
2022/09/11 04:37:05;;;;;;;29.27;14.88;;;16.10;99.90;;;;;;5066609;28;25087;-75
2022/09/11 04:39:31;;;;;;;36.25;15.95;;;16.00;99.90;;;;;;5071414;28;25068;-75
2022/09/11 04:41:56;;;;;;;28.98;15.32;;;16.00;99.90;;;;;;5058851;28;25048;-75
2022/09/11 04:44:23;;;;;;;35.13;16.02;;;16.00;99.90;;;;;;5063702;28;25136;-76
2022/09/11 04:46:49;;;;;;;27.42;14.77;;;15.90;99.90;;;;;;5067106;28;25057;-75
2022/09/11 04:49:15;;;;;;;30.35;14.65;;;15.90;99.90;;;;;;5063847;28;25067;-76
2022/09/11 04:51:41;;;;;;;28.60;15.15;;;15.90;99.90;;;;;;5068777;28;25073;-75
2022/09/11 04:54:08;;;;;;;38.05;19.38;;;16.00;99.90;;;;;;5065632;28;25062;-75
2022/09/11 04:56:38;;;;;;;49.65;21.27;;;16.00;99.90;;;;;;5065094;28;25118;-75
2022/09/11 04:59:12;;;;;;;35.75;18.15;;;16.00;99.90;;;;;;5063874;28;25144;-75
2022/09/11 05:01:38;;;;;;;35.60;17.75;;;15.90;99.90;;;;;;5059792;28;25051;-75
2022/09/11 05:04:04;;;;;;;38.42;17.75;;;15.90;99.90;;;;;;5064420;28;25075;-74
2022/09/11 05:06:30;;;;;;;37.90;17.10;;;15.90;99.90;;;;;;5062617;28;25160;-75
2022/09/11 05:09:04;;;;;;;38.17;17.10;;;16.00;99.90;;;;;;5070191;28;25093;-76
2022/09/11 05:11:30;;;;;;;33.22;16.70;;;16.00;99.90;;;;;;5063006;28;25081;-74
2022/09/11 05:13:58;;;;;;;33.10;15.70;;;16.00;99.90;;;;;;5058923;28;25064;-77
2022/09/11 05:16:26;;;;;;;27.13;15.43;;;16.10;99.90;;;;;;5059725;28;25087;-75
2022/09/11 05:18:52;;;;;;;36.20;16.63;;;16.00;99.90;;;;;;5054396;28;25068;-75
2022/09/11 05:21:21;;;;;;;31.77;16.67;;;16.00;99.90;;;;;;5064016;28;25146;-76
2022/09/11 05:23:49;;;;;;;35.85;17.30;;;15.90;99.90;;;;;;5060180;28;25147;-74
2022/09/11 05:26:17;;;;;;;30.80;16.17;;;15.90;99.90;;;;;;5054968;28;25063;-74
2022/09/11 05:28:43;;;;;;;30.98;15.77;;;15.90;99.90;;;;;;5052143;28;25097;-75
2022/09/11 05:31:11;;;;;;;31.73;15.82;;;15.90;99.90;;;;;;5056011;28;25119;-74
2022/09/11 05:33:38;;;;;;;32.03;16.52;;;16.10;99.90;;;;;;5053284;28;25106;-75
2022/09/11 05:36:04;;;;;;;38.50;16.92;;;16.20;99.90;;;;;;5053090;28;25105;-75
2022/09/11 05:38:30;;;;;;;34.92;17.42;;;16.10;99.90;;;;;;5059641;28;25057;-76
2022/09/11 05:40:56;;;;;;;31.27;16.35;;;16.00;99.90;;;;;;5057002;28;25128;-75
2022/09/11 05:43:21;;;;;;;32.85;16.23;;;16.10;99.90;;;;;;5055224;28;25141;-75
2022/09/11 05:45:55;;;;;;;35.28;17.50;;;16.20;99.90;;;;;;5053907;28;25149;-74
2022/09/11 05:48:21;;;;;;;33.28;16.67;;;16.10;99.90;;;;;;5063806;28;25152;-75
2022/09/11 05:50:55;;;;;;;31.33;15.60;;;16.00;99.90;;;;;;5060587;28;25086;-78
2022/09/11 05:53:21;;;;;;;31.58;16.23;;;16.10;99.90;;;;;;5063870;28;25080;-75
2022/09/11 05:55:50;;;;;;;29.85;16.70;;;16.20;99.90;;;;;;5056016;28;25063;-76
2022/09/11 05:58:16;;;;;;;35.30;18.38;;;16.30;99.90;;;;;;5067357;28;25076;-75
2022/09/11 06:00:45;;;;;;;37.72;16.65;;;16.40;99.90;;;;;;5058403;28;25061;-75
2022/09/11 06:03:15;;;;;;;34.72;16.80;;;16.50;99.90;;;;;;5053289;28;25085;-75
2022/09/11 06:05:41;;;;;;;32.55;16.13;;;16.60;99.90;;;;;;5059146;28;25073;-75
2022/09/11 06:08:08;;;;;;;40.63;18.60;;;16.60;99.90;;;;;;5057671;28;25140;-73
2022/09/11 06:10:46;;;;;;;33.65;17.25;;;16.40;99.90;;;;;;5062193;28;25078;-75
2022/09/11 06:13:16;;;;;;;30.10;15.20;;;16.50;99.90;;;;;;5057396;28;25080;-77
2022/09/11 06:15:45;;;;;;;27.63;15.13;;;16.70;99.90;;;;;;5064714;28;25042;-76
2022/09/11 06:18:11;;;;;;;28.27;14.95;;;16.70;99.90;;;;;;5060797;28;25061;-75
2022/09/11 06:20:37;;;;;;;32.53;15.18;;;16.70;99.90;;;;;;5062960;28;25136;-76
2022/09/11 06:23:02;;;;;;;35.55;16.55;;;16.70;99.90;;;;;;5061431;28;25159;-76
2022/09/11 06:25:28;;;;;;;29.20;15.57;;;16.80;99.90;;;;;;5058254;28;25073;-77
2022/09/11 06:27:54;;;;;;;32.20;16.67;;;16.90;99.90;;;;;;5062846;28;24880;-75
2022/09/11 06:30:20;;;;;;;32.65;16.30;;;17.00;99.90;;;;;;5064398;28;25057;-78
2022/09/11 06:32:48;;;;;;;31.00;16.33;;;17.10;99.90;;;;;;5068110;28;25063;-74
2022/09/11 06:35:13;;;;;;;24.63;15.07;;;17.30;99.90;;;;;;5060368;28;25055;-75
2022/09/11 06:37:39;;;;;;;28.98;15.88;;;17.30;99.90;;;;;;5063557;28;25054;-76
2022/09/11 06:40:05;;;;;;;32.35;16.38;;;17.40;99.90;;;;;;5058509;28;25048;-75
2022/09/11 06:42:30;;;;;;;32.58;16.13;;;17.50;99.90;;;;;;5063026;28;25061;-76
2022/09/11 06:44:56;;;;;;;34.08;16.75;;;17.60;99.90;;;;;;5063477;28;25077;-80
2022/09/11 06:47:22;;;;;;;32.67;18.15;;;17.70;99.90;;;;;;5059448;28;25097;-76
2022/09/11 06:49:47;;;;;;;30.88;16.67;;;17.70;99.90;;;;;;5062735;28;25073;-76
2022/09/11 06:52:13;;;;;;;34.25;18.50;;;17.80;99.90;;;;;;5071933;28;25078;-76
2022/09/11 06:54:39;;;;;;;34.53;17.55;;;17.80;99.90;;;;;;5087915;28;25090;-76
2022/09/11 06:57:04;;;;;;;37.65;20.20;;;18.00;99.90;;;;;;5090002;28;25076;-79
2022/09/11 06:59:30;;;;;;;37.95;19.02;;;18.10;99.90;;;;;;5091517;28;25063;-77
2022/09/11 07:01:56;;;;;;;37.55;18.05;;;18.20;99.90;;;;;;5094857;28;25098;-79
2022/09/11 07:04:23;;;;;;;36.10;18.25;;;18.30;99.90;;;;;;5080503;28;25128;-75
2022/09/11 07:06:49;;;;;;;42.75;21.75;;;18.30;99.90;;;;;;5070874;28;25182;-77
2022/09/11 07:09:14;;;;;;;41.08;20.65;;;18.30;99.90;;;;;;5067510;28;25101;-76
2022/09/11 07:11:43;;;;;;;44.10;22.92;;;18.40;99.90;;;;;;5066408;28;25091;-77
2022/09/11 07:14:09;;;;;;;43.35;21.33;;;18.50;99.90;;;;;;5059102;28;25072;-76
2022/09/11 07:16:35;;;;;;;46.67;23.08;;;18.50;99.90;;;;;;5069682;28;25066;-76
2022/09/11 07:19:02;;;;;;;52.58;23.98;;;18.60;99.90;;;;;;5055797;28;25125;-77
2022/09/11 07:21:28;;;;;;;46.55;23.05;;;18.70;99.90;;;;;;5067700;28;25072;-78
2022/09/11 07:23:56;;;;;;;45.88;23.45;;;18.90;99.90;;;;;;5065088;28;25078;-76
2022/09/11 07:26:24;;;;;;;40.88;21.75;;;19.00;99.90;;;;;;5051789;28;25070;-75
2022/09/11 07:28:51;;;;;;;40.45;22.65;;;19.00;99.90;;;;;;5066997;28;25061;-78
2022/09/11 07:31:20;;;;;;;43.25;20.90;;;19.00;99.90;;;;;;5061192;28;25067;-76
2022/09/11 07:33:47;;;;;;;40.00;21.45;;;18.90;99.90;;;;;;5063202;28;25080;-76
2022/09/11 07:36:18;;;;;;;34.90;18.85;;;19.10;99.90;;;;;;5070282;28;25115;-80
2022/09/11 07:38:45;;;;;;;32.78;17.95;;;19.10;99.90;;;;;;5064371;28;25065;-74
2022/09/11 07:41:12;;;;;;;29.08;17.02;;;19.10;99.90;;;;;;5054707;28;25130;-78
2022/09/11 07:43:44;;;;;;;31.80;17.88;;;19.20;99.90;;;;;;5061453;28;25117;-77
2022/09/11 07:46:10;;;;;;;32.05;17.05;;;19.30;99.90;;;;;;5063479;28;25094;-78
2022/09/11 07:48:37;;;;;;;24.67;15.20;;;19.40;99.90;;;;;;5060044;28;25086;-75
2022/09/11 07:51:05;;;;;;;29.48;16.70;;;19.20;99.90;;;;;;5067175;28;25086;-79
2022/09/11 07:53:39;;;;;;;27.75;15.02;;;19.30;99.90;;;;;;5065278;28;25057;-76
2022/09/11 07:56:09;;;;;;;27.58;15.27;;;19.30;99.90;;;;;;5062456;28;25068;-78
2022/09/11 07:58:37;;;;;;;23.60;12.98;;;19.30;99.90;;;;;;5064004;28;25079;-76
2022/09/11 08:01:04;;;;;;;22.65;13.65;;;19.20;99.90;;;;;;5070011;28;25125;-76
2022/09/11 08:03:31;;;;;;;19.88;12.50;;;19.30;99.90;;;;;;5067189;28;25051;-75
2022/09/11 08:06:02;;;;;;;21.52;13.23;;;19.50;99.90;;;;;;5067292;28;25139;-75
2022/09/11 08:08:28;;;;;;;21.42;13.85;;;19.40;99.90;;;;;;5061073;28;25151;-76
2022/09/11 08:11:00;;;;;;;21.25;13.52;;;19.30;99.90;;;;;;5066729;28;25144;-74
2022/09/11 08:13:26;;;;;;;20.33;12.63;;;19.50;99.90;;;;;;5061538;28;25056;-75
2022/09/11 08:15:51;;;;;;;19.27;11.18;;;19.50;99.90;;;;;;5060043;28;25078;-76
2022/09/11 08:18:17;;;;;;;17.08;10.10;;;19.40;99.90;;;;;;5065608;28;25078;-76
2022/09/11 08:20:43;;;;;;;13.63;9.80;;;19.50;99.90;;;;;;5065426;28;25098;-75
2022/09/11 08:23:10;;;;;;;14.32;9.80;;;19.60;99.90;;;;;;5055915;28;25082;-76
2022/09/11 08:25:37;;;;;;;15.85;10.13;;;19.60;99.90;;;;;;5057544;28;25058;-75
2022/09/11 08:28:03;;;;;;;16.65;9.48;;;19.60;99.90;;;;;;5053808;28;25076;-77
2022/09/11 08:30:29;;;;;;;16.17;9.57;;;19.60;99.90;;;;;;5058806;28;25142;-76
2022/09/11 08:32:55;;;;;;;13.68;9.55;;;19.70;99.90;;;;;;5062286;28;25082;-75
2022/09/11 08:35:20;;;;;;;14.70;8.73;;;19.80;99.90;;;;;;5071220;28;25166;-78
2022/09/11 08:37:46;;;;;;;12.75;9.05;;;20.00;99.90;;;;;;5066929;28;25144;-76
2022/09/11 08:40:12;;;;;;;12.90;8.25;;;20.40;99.90;;;;;;5059739;28;25146;-76
2022/09/11 08:42:44;;;;;;;15.60;9.40;;;20.40;99.90;;;;;;5059420;28;25073;-74
2022/09/11 08:45:18;;;;;;;13.65;9.68;;;20.40;99.90;;;;;;5054454;28;25060;-78
2022/09/11 08:47:52;;;;;;;13.38;9.63;;;20.40;99.90;;;;;;5061556;28;25071;-77
2022/09/11 08:50:25;;;;;;;13.57;9.35;;;19.80;99.90;;;;;;5066217;28;25050;-76
2022/09/11 08:52:53;;;;;;;17.40;10.13;;;19.50;99.90;;;;;;5065260;28;25055;-76
2022/09/11 08:55:28;;;;;;;14.73;10.60;;;19.70;99.90;;;;;;5063239;28;25048;-75
2022/09/11 08:58:18;;;;;;;12.48;10.30;;;19.70;99.90;;;;;;5055255;28;25143;-79
2022/09/11 09:00:54;;;;;;;11.13;8.43;;;19.60;99.90;;;;;;5064835;28;25062;-75
2022/09/11 09:03:47;;;;;;;16.17;9.65;;;19.60;99.90;;;;;;5056976;28;25063;-76
2022/09/11 09:06:35;;;;;;;11.30;8.75;;;19.70;99.90;;;;;;5068719;28;25133;-76
2022/09/11 09:09:28;;;;;;;15.02;7.30;;;20.20;99.90;;;;;;5075452;28;25093;-77
2022/09/11 09:12:27;;;;;;;11.90;7.15;;;20.60;99.90;;;;;;5054391;28;25060;-75
2022/09/11 09:15:10;;;;;;;8.88;6.47;;;20.40;99.90;;;;;;5056131;28;25115;-75
2022/09/11 09:18:04;;;;;;;7.55;5.20;;;20.50;99.90;;;;;;5058946;28;25057;-75
2022/09/11 09:20:34;;;;;;;9.98;5.88;;;20.30;99.90;;;;;;5056750;28;25043;-77
2022/09/11 09:23:05;;;;;;;8.27;5.38;;;20.90;99.90;;;;;;5057974;28;25056;-75
2022/09/11 09:25:37;;;;;;;11.25;6.28;;;21.30;99.90;;;;;;5070825;28;25079;-77
2022/09/11 09:28:19;;;;;;;12.02;5.30;;;21.60;99.90;;;;;;5068554;28;25056;-76
2022/09/11 09:30:56;;;;;;;7.00;6.22;;;21.70;99.90;;;;;;5067849;28;25071;-78
2022/09/11 09:33:37;;;;;;;7.82;5.45;;;21.80;99.90;;;;;;5066420;28;25075;-80
2022/09/11 09:36:30;;;;;;;6.97;4.63;;;21.50;99.90;;;;;;5067523;28;25057;-75
2022/09/11 09:38:57;;;;;;;5.88;4.40;;;21.30;99.90;;;;;;5062921;28;25068;-80
2022/09/11 09:41:35;;;;;;;7.25;4.35;;;21.10;99.90;;;;;;5058427;28;25176;-78
2022/09/11 09:44:17;;;;;;;7.15;4.75;;;20.80;99.90;;;;;;5061948;28;25067;-78
2022/09/11 09:46:45;;;;;;;7.90;4.30;;;20.60;99.90;;;;;;5073971;28;25074;-76
2022/09/11 09:49:18;;;;;;;8.07;4.70;;;20.80;99.90;;;;;;5072608;28;25055;-78
2022/09/11 09:51:43;;;;;;;6.10;3.78;;;20.40;99.90;;;;;;5070607;28;25058;-77
2022/09/11 09:54:18;;;;;;;9.30;4.10;;;20.20;99.90;;;;;;5075849;28;25066;-77
2022/09/11 09:56:55;;;;;;;8.07;5.38;;;20.30;99.90;;;;;;5076703;28;25073;-76
2022/09/11 09:59:39;;;;;;;7.50;4.55;;;20.30;99.90;;;;;;5064530;28;25068;-75
2022/09/11 10:02:05;;;;;;;10.75;4.88;;;20.20;99.90;;;;;;5061543;28;25062;-76
2022/09/11 10:04:31;;;;;;;4.75;4.20;;;20.30;99.90;;;;;;5059112;28;25074;-75
2022/09/11 10:07:17;;;;;;;7.45;4.75;;;20.30;99.90;;;;;;5062339;28;25061;-77
2022/09/11 10:09:51;;;;;;;8.30;4.55;;;20.50;99.90;;;;;;5070833;28;25138;-77
2022/09/11 10:12:25;;;;;;;6.20;4.60;;;20.40;99.90;;;;;;5061676;28;25062;-77
2022/09/11 10:15:01;;;;;;;6.10;4.13;;;20.50;99.90;;;;;;5059716;28;25072;-76
2022/09/11 10:17:28;;;;;;;6.85;4.60;;;20.60;99.90;;;;;;5063257;28;25098;-76
2022/09/11 10:19:58;;;;;;;9.27;5.05;;;20.80;99.90;;;;;;5069081;28;25143;-78
2022/09/11 10:22:28;;;;;;;8.77;6.00;;;20.90;99.90;;;;;;5073921;28;25063;-77
2022/09/11 10:25:02;;;;;;;11.27;6.38;;;21.20;99.90;;;;;;5057671;28;25065;-78
2022/09/11 10:27:31;;;;;;;9.88;5.97;;;21.20;99.90;;;;;;5070278;28;25130;-78
2022/09/11 10:29:57;;;;;;;9.18;5.93;;;21.20;99.90;;;;;;5071821;28;25060;-79
2022/09/11 10:32:24;;;;;;;9.20;5.68;;;21.40;99.90;;;;;;5072340;28;25074;-77
2022/09/11 10:34:51;;;;;;;9.55;5.90;;;21.40;99.90;;;;;;5070398;28;25058;-77
2022/09/11 10:37:30;;;;;;;5.22;4.47;;;21.30;99.90;;;;;;5066310;28;25066;-77
2022/09/11 10:40:07;;;;;;;6.68;4.43;;;21.30;99.90;;;;;;5073175;28;25040;-80
2022/09/11 10:42:36;;;;;;;6.85;4.57;;;21.10;99.90;;;;;;5068770;28;25145;-78
2022/09/11 10:45:15;;;;;;;4.40;3.20;;;21.00;99.90;;;;;;5073618;28;25139;-76
2022/09/11 10:47:42;;;;;;;3.35;2.78;;;21.20;99.90;;;;;;5070311;28;25080;-78
2022/09/11 10:50:16;;;;;;;7.32;3.40;;;21.50;99.90;;;;;;5064930;28;25066;-78
2022/09/11 10:53:11;;;;;;;4.47;2.90;;;21.60;99.90;;;;;;5063816;28;25164;-78
2022/09/11 10:55:41;;;;;;;5.45;2.95;;;21.40;99.90;;;;;;5073748;28;25118;-75
2022/09/11 10:58:22;;;;;;;4.53;2.72;;;21.30;99.90;;;;;;5070069;28;25062;-75
2022/09/11 11:00:50;;;;;;;7.65;3.42;;;21.10;99.90;;;;;;5075710;28;25052;-78
2022/09/11 11:03:21;;;;;;;2.92;2.25;;;21.20;99.90;;;;;;5082904;28;25059;-78
2022/09/11 11:06:24;;;;;;;4.65;2.33;;;21.30;99.90;;;;;;5061975;28;25065;-78
2022/09/11 11:09:08;;;;;;;5.32;2.70;;;21.30;99.90;;;;;;5064836;28;25162;-77
2022/09/11 11:11:33;;;;;;;5.43;2.80;;;21.50;99.90;;;;;;5060136;28;25079;-76
2022/09/11 11:14:12;;;;;;;3.60;2.13;;;21.60;99.90;;;;;;5070188;28;25146;-76
2022/09/11 11:16:59;;;;;;;3.10;2.38;;;21.60;99.90;;;;;;5066374;28;25062;-77
2022/09/11 11:20:06;;;;;;;5.93;2.45;;;21.70;99.90;;;;;;5062879;28;25090;-77
2022/09/11 11:22:53;;;;;;;5.55;2.55;;;21.50;99.90;;;;;;5066311;28;25106;-74
2022/09/11 11:25:26;;;;;;;5.75;2.78;;;21.80;99.90;;;;;;5065824;28;25097;-76
2022/09/11 11:28:22;;;;;;;3.63;2.47;;;22.00;99.90;;;;;;5071867;28;25073;-77
2022/09/11 11:31:07;;;;;;;3.33;2.03;;;21.90;99.90;;;;;;5078962;28;25052;-78
2022/09/11 11:33:54;;;;;;;3.15;2.38;;;21.80;99.90;;;;;;5087146;28;25070;-79
2022/09/11 11:36:31;;;;;;;5.68;3.20;;;21.80;99.90;;;;;;5086675;28;25101;-78
2022/09/11 11:39:25;;;;;;;2.85;2.65;;;21.80;99.90;;;;;;5098354;28;25115;-78
2022/09/11 11:42:21;;;;;;;5.78;2.70;;;21.80;99.90;;;;;;5086254;28;25052;-79
2022/09/11 11:44:57;;;;;;;3.63;2.45;;;21.60;99.90;;;;;;5088346;28;25052;-79
2022/09/11 11:47:27;;;;;;;3.95;2.90;;;21.60;99.90;;;;;;5088247;28;25044;-79
2022/09/11 11:50:07;;;;;;;4.75;3.08;;;21.40;99.90;;;;;;5090047;28;25043;-77
2022/09/11 11:52:43;;;;;;;6.40;3.05;;;21.20;99.90;;;;;;5084542;28;25050;-80
2022/09/11 11:55:19;;;;;;;5.35;3.42;;;20.90;99.90;;;;;;5085164;28;25054;-79
2022/09/11 11:58:03;;;;;;;4.03;2.97;;;20.80;99.90;;;;;;5087981;28;25049;-80
2022/09/11 12:00:38;;;;;;;4.35;2.47;;;20.70;99.90;;;;;;5092503;28;25075;-80
2022/09/11 12:03:15;;;;;;;2.88;2.35;;;20.80;99.90;;;;;;5078730;28;25051;-78
2022/09/11 12:05:41;;;;;;;5.75;2.92;;;21.10;99.90;;;;;;5067664;28;25066;-77
2022/09/11 12:08:15;;;;;;;4.43;2.45;;;21.40;99.90;;;;;;5069215;28;25092;-79
2022/09/11 12:10:55;;;;;;;2.67;2.47;;;21.50;99.90;;;;;;5069642;28;25076;-78
2022/09/11 12:13:29;;;;;;;3.50;2.88;;;21.50;99.90;;;;;;5070722;28;25077;-78
2022/09/11 12:16:24;;;;;;;5.93;3.10;;;21.60;99.90;;;;;;5068128;28;25065;-78
2022/09/11 12:19:13;;;;;;;3.63;2.50;;;21.50;99.90;;;;;;5072401;28;25081;-77
2022/09/11 12:21:40;;;;;;;3.00;2.60;;;21.60;99.90;;;;;;5063688;28;25074;-76
2022/09/11 12:24:06;;;;;;;3.85;2.70;;;21.40;99.90;;;;;;5077754;28;25121;-78
2022/09/11 12:26:32;;;;;;;4.57;3.00;;;21.40;99.90;;;;;;5075367;28;25058;-77
2022/09/11 12:29:19;;;;;;;3.30;3.00;;;21.30;99.90;;;;;;5075731;28;25075;-77
2022/09/11 12:31:50;;;;;;;2.35;2.15;;;21.40;99.90;;;;;;5074063;28;25065;-77
2022/09/11 12:34:17;;;;;;;3.78;2.80;;;21.70;99.90;;;;;;5066005;28;25077;-77
2022/09/11 12:36:56;;;;;;;3.33;2.80;;;21.90;99.90;;;;;;5066229;28;25070;-76
2022/09/11 12:39:30;;;;;;;3.28;2.58;;;21.90;99.90;;;;;;5066345;28;25073;-76
2022/09/11 12:42:37;;;;;;;2.17;2.00;;;22.10;99.90;;;;;;5076848;28;25055;-77
2022/09/11 12:45:04;;;;;;;3.60;2.13;;;22.10;99.90;;;;;;5068776;28;25089;-77
2022/09/11 12:47:38;;;;;;;3.40;2.80;;;22.50;99.90;;;;;;5068574;28;25058;-79
2022/09/11 12:50:04;;;;;;;1.90;1.80;;;22.90;99.90;;;;;;5065930;28;25061;-80
2022/09/11 12:52:48;;;;;;;1.63;1.52;;;23.30;99.90;;;;;;5081625;28;25077;-77
2022/09/11 12:55:53;;;;;;;3.00;2.22;;;23.80;99.90;;;;;;5091480;28;25080;-79
2022/09/11 12:58:24;;;;;;;4.65;2.25;;;23.00;99.90;;;;;;5097216;28;25081;-78